Iberica Hav — C6YI3 — position and weather

sailwx.info

Track history (hours):
 
Tides and Currents Weather Stations Pressure Air Temp Water Temp Dewpoint Dewpoint Depression Visibility Wind Speed Wind Dir Waves Ship Positions

Iberica Hav

Last reported at 2016-May-29 01:33 UTC. Time now 2016-May-30 22:20 UTC.
Position N 49°29' E 000°48'.

Length 88 m; draft 2.7 m.

Type: Cargo ship. MMSI: 311034400.

Date/timePositionNaut miles runAvg speedWind from/ knotsBaromVisibWave heightAir tempDewpointWater temp
2016-May-29 01:33N 49°29' E 000°48'7 6.7
2016-May-29 00:33N 49°27' E 000°38'9 9.2
2016-May-28 23:33N 49°27' E 000°24'1110.9
2016-May-28 22:33N 49°26' E 000°08'9 9.5
2016-May-28 21:33N 49°29' W 000°06'7 7.2
2016-May-28 20:33N 49°36' W 000°07'9 9.1
2016-May-28 19:33N 49°45' W 000°08'9 9.1
2016-May-28 18:33N 49°54' W 000°07'9 8.8
2016-May-28 17:33N 50°03' W 000°06'9 8.7
2016-May-28 16:33N 50°12' W 000°04'9 9.0
2016-May-28 15:33N 50°21' W 000°02'8 7.8
2016-May-28 14:33N 50°28' E 000°03'9 8.6
2016-May-28 13:33N 50°30' E 000°16'41 9.5
2016-May-28 09:11N 50°54' E 001°10'711.1
2016-May-28 08:33N 50°59' E 001°18'1010.5
2016-May-28 07:33N 51°06' E 001°30'9 8.7
2016-May-28 06:33N 51°12' E 001°39'8 7.7
2016-May-28 05:33N 51°20' E 001°43'8 7.7
2016-May-28 04:33N 51°27' E 001°44'9 8.9
2016-May-28 03:33N 51°36' E 001°45'10 9.9
2016-May-28 02:33N 51°46' E 001°44'1110.7
2016-May-28 01:33N 51°57' E 001°46'1211.6
2016-May-28 00:33N 52°08' E 001°49'1511.6
2016-May-27 23:15N 52°23' E 001°51'811.8
2016-May-27 22:33N 52°31' E 001°52'1110.8
2016-May-27 21:33N 52°42' E 001°47'1110.9
2016-May-27 20:32N 52°50' E 001°35'9 9.6
2016-May-27 19:33N 52°56' E 001°23'10 9.1
2016-May-27 18:28N 53°01' E 001°09'7 8.3
2016-May-27 17:33N 53°05' E 000°59'8 8.1
2016-May-27 16:33N 53°11' E 000°49'25 8.2
2016-May-27 13:28N 53°29' E 000°20'8 8.8
2016-May-27 12:33N 53°33' E 000°08'1312.9
2016-May-27 11:33N 53°39' W 000°11'7 7.2
2016-May-27 10:32N 53°43' W 000°22'0 0.0
2016-May-27 09:32N 53°43' W 000°22'0 0.0
2016-May-27 08:32N 53°43' W 000°22'0 0.0
2016-May-27 07:32N 53°43' W 000°22'0 0.0
2016-May-27 06:32N 53°43' W 000°22'0 0.0
2016-May-27 05:32N 53°43' W 000°22'0 0.0
2016-May-27 04:32N 53°43' W 000°22'0 0.0
2016-May-27 03:32N 53°43' W 000°22'0 0.0
2016-May-27 02:29N 53°43' W 000°22'0 0.0
2016-May-27 01:32N 53°43' W 000°22'0 0.0
2016-May-27 00:32N 53°43' W 000°22'0 0.0
2016-May-26 23:32N 53°43' W 000°22'0 0.0
2016-May-26 22:32N 53°43' W 000°22'0 0.0
2016-May-26 21:32N 53°43' W 000°22'0 0.0
2016-May-26 20:32N 53°43' W 000°22'0 0.0
2016-May-26 19:32N 53°43' W 000°22'0 0.0
2016-May-26 18:32N 53°43' W 000°22'0 0.0
2016-May-26 17:32N 53°43' W 000°22'0 0.0
2016-May-26 16:32N 53°43' W 000°22'0 0.0
2016-May-26 15:32N 53°43' W 000°22'0 0.0
2016-May-26 14:32N 53°43' W 000°22'0 0.0
2016-May-26 13:32N 53°43' W 000°22'0 0.0
2016-May-26 12:32N 53°43' W 000°22'0 0.0
2016-May-26 11:32N 53°43' W 000°22'0 0.0
2016-May-26 10:32N 53°43' W 000°22'0 0.0
2016-May-26 09:32N 53°43' W 000°22'2 1.8
2016-May-26 08:33N 53°43' W 000°19'8 7.8
2016-May-26 07:33N 53°38' W 000°09'1010.0
2016-May-26 06:33N 53°34' E 000°06'10 8.9
2016-May-26 05:24N 53°33' E 000°23'2 0.4
2016-May-25 23:28N 53°36' E 000°24'23 7.9
2016-May-25 20:30N 53°15' E 000°43'7 6.7
2016-May-25 19:30N 53°11' E 000°51'7 6.9
2016-May-25 18:32N 53°06' E 000°59'10 8.5
2016-May-25 17:25N 53°00' E 001°12'8 9.8
2016-May-25 16:34N 52°56' E 001°24'1110.7
2016-May-25 15:33N 52°49' E 001°37'1110.8
2016-May-25 14:33N 52°41' E 001°49'10 9.7
2016-May-25 13:33N 52°33' E 001°58'72 7.7
2016-May-25 04:09N 51°40' E 003°19'8 9.5
2016-May-25 03:20N 51°34' E 003°25'7 9.5
2016-May-25 02:33N 51°27' E 003°31'7 6.7
2016-May-25 01:33N 51°24' E 003°41'7 6.9
2016-May-25 00:33N 51°20' E 003°49'0 0.5
2016-May-24 23:34N 51°19' E 003°49'0 0.3
2016-May-24 22:34N 51°19' E 003°50'3 2.5
2016-May-24 21:34N 51°17' E 003°50'8 8.3
2016-May-24 20:34N 51°09' E 003°47'3 3.1
2016-May-24 19:29N 51°05' E 003°45'0 0.0
2016-May-24 18:32N 51°05' E 003°45'0 0.0
2016-May-24 17:33N 51°05' E 003°45'0 0.0
2016-May-24 16:32N 51°05' E 003°45'0 0.0
2016-May-24 15:32N 51°05' E 003°45'0 0.0
2016-May-24 14:32N 51°05' E 003°45'0 0.0
2016-May-24 13:29N 51°05' E 003°45'0 0.0
2016-May-24 12:26N 51°05' E 003°45'0 0.0
2016-May-24 11:32N 51°05' E 003°45'0 0.0
2016-May-24 10:29N 51°05' E 003°45'0 0.0
2016-May-24 09:32N 51°05' E 003°45'0 0.0
2016-May-24 08:29N 51°05' E 003°45'4 3.8
2016-May-24 07:34N 51°09' E 003°47'8 7.7
2016-May-24 06:34N 51°16' E 003°50'4 3.7
2016-May-24 05:33N 51°20' E 003°49'3 2.7
2016-May-24 04:33N 51°22' E 003°46'6 6.5
2016-May-24 03:33N 51°25' E 003°37'8 7.5
2016-May-24 02:33N 51°30' E 003°28'8 7.4
2016-May-24 01:31N 51°37' E 003°22'9 2.6
2016-May-23 22:13N 51°45' E 003°18'  
2016-May-21 09:25N 53°33' E 005°02'8 8.9
2016-May-21 08:33N 53°36' E 005°14'8 8.2
2016-May-21 07:33N 53°38' E 005°27'8 7.9
2016-May-21 06:33N 53°41' E 005°40'8 8.3
2016-May-21 05:33N 53°44' E 005°53'9 8.8
2016-May-21 04:33N 53°46' E 006°07'10 9.8
2016-May-21 03:33N 53°49' E 006°23'1110.6
2016-May-21 02:33N 53°52' E 006°40'1110.6
2016-May-21 01:33N 53°54' E 006°58'1010.3
2016-May-21 00:33N 53°57' E 007°15'10 9.9
2016-May-20 23:33N 53°59' E 007°32'19 8.1
2016-May-20 21:11N 53°51' E 008°02'6 7.8
2016-May-20 20:22N 53°47' E 008°10'6 7.1
2016-May-20 19:33N 53°43' E 008°17'9 8.6
2016-May-20 18:33N 53°38' E 008°28'7 6.6
2016-May-20 17:31N 53°31' E 008°33'0 0.0
2016-May-20 16:31N 53°31' E 008°33'0 0.0
2016-May-20 15:31N 53°31' E 008°33'0 0.0
2016-May-20 14:31N 53°31' E 008°33'0 0.0
2016-May-20 13:31N 53°31' E 008°33'0 0.0
2016-May-20 12:31N 53°31' E 008°33'0 0.0
2016-May-20 11:28N 53°31' E 008°33'0 0.0
2016-May-20 10:31N 53°31' E 008°33'0 0.0
2016-May-20 09:28N 53°31' E 008°33'0 0.0
2016-May-20 08:31N 53°31' E 008°33'0 0.0
2016-May-20 07:31N 53°31' E 008°33'0 0.0
2016-May-20 06:31N 53°31' E 008°33'0 0.0
2016-May-20 04:31N 53°31' E 008°33'0 0.4
2016-May-20 03:31N 53°31' E 008°33'0 0.0
2016-May-20 02:31N 53°31' E 008°33'0 0.0
2016-May-20 01:31N 53°31' E 008°33'0 0.0
2016-May-20 00:31N 53°31' E 008°33'0 0.1
2016-May-19 23:28N 53°31' E 008°33'0 0.0
2016-May-19 22:28N 53°31' E 008°33'0 0.0
2016-May-19 21:31N 53°31' E 008°33'0 0.0
2016-May-19 20:31N 53°31' E 008°33'0 0.0
2016-May-19 19:31N 53°31' E 008°33'0 0.1
2016-May-19 18:31N 53°31' E 008°33'2 1.6
2016-May-19 17:34N 53°33' E 008°34'7 7.4
2016-May-19 16:33N 53°38' E 008°26'7 6.9
2016-May-19 15:32N 53°43' E 008°17'14 6.7
2016-May-19 13:29N 53°51' E 007°59'9 7.4
2016-May-19 12:19N 53°53' E 007°44'6 8.0
2016-May-19 11:32N 53°54' E 007°34'9 8.7
2016-May-19 10:33N 53°52' E 007°20'9 9.2
2016-May-19 09:33N 53°50' E 007°04'10 9.8
2016-May-19 08:33N 53°48' E 006°48'1010.4
2016-May-19 07:33N 53°45' E 006°31'1010.4
2016-May-19 06:33N 53°43' E 006°14'1010.4
2016-May-19 05:33N 53°39' E 005°58'1010.4
2016-May-19 04:33N 53°36' E 005°41'1110.6
2016-May-19 03:33N 53°32' E 005°24'1010.3
2016-May-19 02:33N 53°29' E 005°07'  
Track history (hours):
 
Tides and Currents Weather Stations Pressure Air Temp Water Temp Dewpoint Dewpoint Depression Visibility Wind Speed Wind Dir Waves Ship Positions

Iberica Hav

Last reported at 2016-May-29 01:33 UTC. Time now 2016-May-30 22:20 UTC.
Position N 49°29' E 000°48'.

Length 88 m; draft 2.7 m.

Type: Cargo ship. MMSI: 311034400.

Date/timePositionNaut miles runAvg speedWind from/ knotsBaromVisibWave heightAir tempDewpointWater temp
2016-May-29 01:33N 49°29' E 000°48'7 6.7
2016-May-29 00:33N 49°27' E 000°38'9 9.2
2016-May-28 23:33N 49°27' E 000°24'1110.9
2016-May-28 22:33N 49°26' E 000°08'9 9.5
2016-May-28 21:33N 49°29' W 000°06'7 7.2
2016-May-28 20:33N 49°36' W 000°07'9 9.1
2016-May-28 19:33N 49°45' W 000°08'9 9.1
2016-May-28 18:33N 49°54' W 000°07'9 8.8
2016-May-28 17:33N 50°03' W 000°06'9 8.7
2016-May-28 16:33N 50°12' W 000°04'9 9.0
2016-May-28 15:33N 50°21' W 000°02'8 7.8
2016-May-28 14:33N 50°28' E 000°03'9 8.6
2016-May-28 13:33N 50°30' E 000°16'41 9.5
2016-May-28 09:11N 50°54' E 001°10'711.1
2016-May-28 08:33N 50°59' E 001°18'1010.5
2016-May-28 07:33N 51°06' E 001°30'9 8.7
2016-May-28 06:33N 51°12' E 001°39'8 7.7
2016-May-28 05:33N 51°20' E 001°43'8 7.7
2016-May-28 04:33N 51°27' E 001°44'9 8.9
2016-May-28 03:33N 51°36' E 001°45'10 9.9
2016-May-28 02:33N 51°46' E 001°44'1110.7
2016-May-28 01:33N 51°57' E 001°46'1211.6
2016-May-28 00:33N 52°08' E 001°49'1511.6
2016-May-27 23:15N 52°23' E 001°51'811.8
2016-May-27 22:33N 52°31' E 001°52'1110.8
2016-May-27 21:33N 52°42' E 001°47'1110.9
2016-May-27 20:32N 52°50' E 001°35'9 9.6
2016-May-27 19:33N 52°56' E 001°23'10 9.1
2016-May-27 18:28N 53°01' E 001°09'7 8.3
2016-May-27 17:33N 53°05' E 000°59'8 8.1
2016-May-27 16:33N 53°11' E 000°49'25 8.2
2016-May-27 13:28N 53°29' E 000°20'8 8.8
2016-May-27 12:33N 53°33' E 000°08'1312.9
2016-May-27 11:33N 53°39' W 000°11'7 7.2
2016-May-27 10:32N 53°43' W 000°22'0 0.0
2016-May-27 09:32N 53°43' W 000°22'0 0.0
2016-May-27 08:32N 53°43' W 000°22'0 0.0
2016-May-27 07:32N 53°43' W 000°22'0 0.0
2016-May-27 06:32N 53°43' W 000°22'0 0.0
2016-May-27 05:32N 53°43' W 000°22'0 0.0
2016-May-27 04:32N 53°43' W 000°22'0 0.0
2016-May-27 03:32N 53°43' W 000°22'0 0.0
2016-May-27 02:29N 53°43' W 000°22'0 0.0
2016-May-27 01:32N 53°43' W 000°22'0 0.0
2016-May-27 00:32N 53°43' W 000°22'0 0.0
2016-May-26 23:32N 53°43' W 000°22'0 0.0
2016-May-26 22:32N 53°43' W 000°22'0 0.0
2016-May-26 21:32N 53°43' W 000°22'0 0.0
2016-May-26 20:32N 53°43' W 000°22'0 0.0
2016-May-26 19:32N 53°43' W 000°22'0 0.0
2016-May-26 18:32N 53°43' W 000°22'0 0.0
2016-May-26 17:32N 53°43' W 000°22'0 0.0
2016-May-26 16:32N 53°43' W 000°22'0 0.0
2016-May-26 15:32N 53°43' W 000°22'0 0.0
2016-May-26 14:32N 53°43' W 000°22'0 0.0
2016-May-26 13:32N 53°43' W 000°22'0 0.0
2016-May-26 12:32N 53°43' W 000°22'0 0.0
2016-May-26 11:32N 53°43' W 000°22'0 0.0
2016-May-26 10:32N 53°43' W 000°22'0 0.0
2016-May-26 09:32N 53°43' W 000°22'2 1.8
2016-May-26 08:33N 53°43' W 000°19'8 7.8
2016-May-26 07:33N 53°38' W 000°09'1010.0
2016-May-26 06:33N 53°34' E 000°06'10 8.9
2016-May-26 05:24N 53°33' E 000°23'2 0.4
2016-May-25 23:28N 53°36' E 000°24'23 7.9
2016-May-25 20:30N 53°15' E 000°43'7 6.7
2016-May-25 19:30N 53°11' E 000°51'7 6.9
2016-May-25 18:32N 53°06' E 000°59'10 8.5
2016-May-25 17:25N 53°00' E 001°12'8 9.8
2016-May-25 16:34N 52°56' E 001°24'1110.7
2016-May-25 15:33N 52°49' E 001°37'1110.8
2016-May-25 14:33N 52°41' E 001°49'10 9.7
2016-May-25 13:33N 52°33' E 001°58'72 7.7
2016-May-25 04:09N 51°40' E 003°19'8 9.5
2016-May-25 03:20N 51°34' E 003°25'7 9.5
2016-May-25 02:33N 51°27' E 003°31'7 6.7
2016-May-25 01:33N 51°24' E 003°41'7 6.9
2016-May-25 00:33N 51°20' E 003°49'0 0.5
2016-May-24 23:34N 51°19' E 003°49'0 0.3
2016-May-24 22:34N 51°19' E 003°50'3 2.5
2016-May-24 21:34N 51°17' E 003°50'8 8.3
2016-May-24 20:34N 51°09' E 003°47'3 3.1
2016-May-24 19:29N 51°05' E 003°45'0 0.0
2016-May-24 18:32N 51°05' E 003°45'0 0.0
2016-May-24 17:33N 51°05' E 003°45'0 0.0
2016-May-24 16:32N 51°05' E 003°45'0 0.0
2016-May-24 15:32N 51°05' E 003°45'0 0.0
2016-May-24 14:32N 51°05' E 003°45'0 0.0
2016-May-24 13:29N 51°05' E 003°45'0 0.0
2016-May-24 12:26N 51°05' E 003°45'0 0.0
2016-May-24 11:32N 51°05' E 003°45'0 0.0
2016-May-24 10:29N 51°05' E 003°45'0 0.0
2016-May-24 09:32N 51°05' E 003°45'0 0.0
2016-May-24 08:29N 51°05' E 003°45'4 3.8
2016-May-24 07:34N 51°09' E 003°47'8 7.7
2016-May-24 06:34N 51°16' E 003°50'4 3.7
2016-May-24 05:33N 51°20' E 003°49'3 2.7
2016-May-24 04:33N 51°22' E 003°46'6 6.5
2016-May-24 03:33N 51°25' E 003°37'8 7.5
2016-May-24 02:33N 51°30' E 003°28'8 7.4
2016-May-24 01:31N 51°37' E 003°22'9 2.6
2016-May-23 22:13N 51°45' E 003°18'  
2016-May-21 09:25N 53°33' E 005°02'8 8.9
2016-May-21 08:33N 53°36' E 005°14'8 8.2
2016-May-21 07:33N 53°38' E 005°27'8 7.9
2016-May-21 06:33N 53°41' E 005°40'8 8.3
2016-May-21 05:33N 53°44' E 005°53'9 8.8
2016-May-21 04:33N 53°46' E 006°07'10 9.8
2016-May-21 03:33N 53°49' E 006°23'1110.6
2016-May-21 02:33N 53°52' E 006°40'1110.6
2016-May-21 01:33N 53°54' E 006°58'1010.3
2016-May-21 00:33N 53°57' E 007°15'10 9.9
2016-May-20 23:33N 53°59' E 007°32'19 8.1
2016-May-20 21:11N 53°51' E 008°02'6 7.8
2016-May-20 20:22N 53°47' E 008°10'6 7.1
2016-May-20 19:33N 53°43' E 008°17'9 8.6
2016-May-20 18:33N 53°38' E 008°28'7 6.6
2016-May-20 17:31N 53°31' E 008°33'0 0.0
2016-May-20 16:31N 53°31' E 008°33'0 0.0
2016-May-20 15:31N 53°31' E 008°33'0 0.0
2016-May-20 14:31N 53°31' E 008°33'0 0.0
2016-May-20 13:31N 53°31' E 008°33'0 0.0
2016-May-20 12:31N 53°31' E 008°33'0 0.0
2016-May-20 11:28N 53°31' E 008°33'0 0.0
2016-May-20 10:31N 53°31' E 008°33'0 0.0
2016-May-20 09:28N 53°31' E 008°33'0 0.0
2016-May-20 08:31N 53°31' E 008°33'0 0.0
2016-May-20 07:31N 53°31' E 008°33'0 0.0
2016-May-20 06:31N 53°31' E 008°33'0 0.0
2016-May-20 04:31N 53°31' E 008°33'0 0.4
2016-May-20 03:31N 53°31' E 008°33'0 0.0
2016-May-20 02:31N 53°31' E 008°33'0 0.0
2016-May-20 01:31N 53°31' E 008°33'0 0.0
2016-May-20 00:31N 53°31' E 008°33'0 0.1
2016-May-19 23:28N 53°31' E 008°33'0 0.0
2016-May-19 22:28N 53°31' E 008°33'0 0.0
2016-May-19 21:31N 53°31' E 008°33'0 0.0
2016-May-19 20:31N 53°31' E 008°33'0 0.0
2016-May-19 19:31N 53°31' E 008°33'0 0.1
2016-May-19 18:31N 53°31' E 008°33'2 1.6
2016-May-19 17:34N 53°33' E 008°34'7 7.4
2016-May-19 16:33N 53°38' E 008°26'7 6.9
2016-May-19 15:32N 53°43' E 008°17'14 6.7
2016-May-19 13:29N 53°51' E 007°59'9 7.4
2016-May-19 12:19N 53°53' E 007°44'6 8.0
2016-May-19 11:32N 53°54' E 007°34'9 8.7
2016-May-19 10:33N 53°52' E 007°20'9 9.2
2016-May-19 09:33N 53°50' E 007°04'10 9.8
2016-May-19 08:33N 53°48' E 006°48'1010.4
2016-May-19 07:33N 53°45' E 006°31'1010.4
2016-May-19 06:33N 53°43' E 006°14'1010.4
2016-May-19 05:33N 53°39' E 005°58'1010.4
2016-May-19 04:33N 53°36' E 005°41'1110.6
2016-May-19 03:33N 53°32' E 005°24'1010.3
2016-May-19 02:33N 53°29' E 005°07'  

Dump ship's entire track history